Time;durP1;ratioP1;P1;durP2;ratioP2;P2;SDS_P1;SDS_P2;PMS_P1;PMS_P2;Temp;Humidity;BMP_temperature;BMP_pressure;BME280_temperature;BME280_humidity;BME280_pressure;Samples;Min_cycle;Max_cycle;Signal;HPM_P1;HPM_P2
2024/01/18 00:01:01;;;;;;;28.73;16.50;;;;;;;-1.40;92.28;98366.31;5055556;28;20217;-71
2024/01/18 00:03:30;;;;;;;51.80;23.23;;;;;;;-1.51;93.23;98377.00;5055421;28;20276;-71
2024/01/18 00:05:59;;;;;;;33.27;18.30;;;;;;;-1.46;92.42;98375.59;5055435;28;20252;-71
2024/01/18 00:08:28;;;;;;;28.70;17.43;;;;;;;-1.48;93.37;98376.72;5055387;28;20202;-71
2024/01/18 00:10:56;;;;;;;31.40;17.80;;;;;;;-1.49;92.44;98380.31;5055854;28;20206;-71
2024/01/18 00:13:25;;;;;;;30.73;17.33;;;;;;;-1.47;92.90;98378.38;5054899;28;20237;-71
2024/01/18 00:15:53;;;;;;;29.07;17.87;;;;;;;-1.44;93.44;98383.34;5055236;28;20241;-71
2024/01/18 00:18:23;;;;;;;25.53;17.07;;;;;;;-1.42;93.83;98386.66;5055151;28;20248;-71
2024/01/18 00:20:51;;;;;;;25.83;17.07;;;;;;;-1.42;93.11;98397.13;5055452;28;20238;-71
2024/01/18 00:23:20;;;;;;;25.17;17.23;;;;;;;-1.42;93.59;98402.38;5054998;28;20226;-71
2024/01/18 00:25:48;;;;;;;25.13;15.63;;;;;;;-1.40;92.25;98400.44;5055035;28;20237;-71
2024/01/18 00:28:17;;;;;;;27.53;17.37;;;;;;;-1.39;92.07;98402.09;5054722;28;20301;-71
2024/01/18 00:30:45;;;;;;;23.30;17.23;;;;;;;-1.41;92.74;98404.06;5054934;28;20202;-71
2024/01/18 00:33:14;;;;;;;23.20;16.77;;;;;;;-1.41;93.08;98409.31;5054539;28;20683;-71
2024/01/18 00:35:44;;;;;;;24.07;17.37;;;;;;;-1.45;93.29;98411.38;5054535;28;20260;-71
2024/01/18 00:38:12;;;;;;;26.43;17.47;;;;;;;-1.43;91.97;98411.22;5054720;28;20230;-71
2024/01/18 00:40:41;;;;;;;25.77;17.07;;;;;;;-1.42;91.79;98418.13;5054751;28;20230;-71
2024/01/18 00:43:10;;;;;;;26.33;17.27;;;;;;;-1.41;91.90;98412.75;5054644;28;20249;-71
2024/01/18 00:45:39;;;;;;;27.03;16.70;;;;;;;-1.39;92.81;98413.44;5054644;28;20234;-71
2024/01/18 00:48:08;;;;;;;25.33;16.53;;;;;;;-1.37;92.01;98415.94;5054476;28;20201;-71
2024/01/18 00:50:37;;;;;;;25.10;16.03;;;;;;;-1.35;91.87;98432.34;5054534;28;20202;-71
2024/01/18 00:53:07;;;;;;;26.93;16.57;;;;;;;-1.36;92.87;98428.06;5054375;28;20316;-71
2024/01/18 00:55:35;;;;;;;24.20;16.10;;;;;;;-1.35;93.01;98434.97;5054441;28;20293;-71
2024/01/18 00:58:04;;;;;;;23.80;15.50;;;;;;;-1.35;93.03;98427.09;5054045;28;20704;-71
2024/01/18 01:00:32;;;;;;;23.67;16.23;;;;;;;-1.34;92.17;98415.63;5054057;28;20632;-71
2024/01/18 01:03:01;;;;;;;27.07;17.13;;;;;;;-1.36;93.61;98412.31;5053892;28;20724;-71
2024/01/18 01:05:29;;;;;;;25.50;16.80;;;;;;;-1.34;92.77;98431.38;5054278;28;20233;-71
2024/01/18 01:07:58;;;;;;;25.03;16.73;;;;;;;-1.37;92.58;98444.78;5053913;28;20738;-71
2024/01/18 01:10:28;;;;;;;24.23;16.40;;;;;;;-1.34;93.11;98447.13;5054194;28;20267;-71
2024/01/18 01:12:56;;;;;;;25.40;16.40;;;;;;;-1.38;92.02;98451.00;5054068;28;20232;-71
2024/01/18 01:15:24;;;;;;;27.07;18.10;;;;;;;-1.43;92.91;98466.34;5054086;28;20297;-71
2024/01/18 01:17:53;;;;;;;23.07;15.97;;;;;;;-1.40;92.88;98463.44;5054008;28;20221;-71
2024/01/18 01:20:22;;;;;;;28.90;16.80;;;;;;;-1.43;91.48;98450.59;5054025;28;20206;-71
2024/01/18 01:22:50;;;;;;;24.37;16.33;;;;;;;-1.46;92.99;98449.06;5053924;28;20292;-71
2024/01/18 01:25:18;;;;;;;25.83;16.00;;;;;;;-1.44;92.33;98457.66;5053927;28;20206;-71
2024/01/18 01:27:48;;;;;;;23.77;17.03;;;;;;;-1.44;92.21;98456.81;5053894;28;20233;-71
2024/01/18 01:30:17;;;;;;;25.10;16.67;;;;;;;-1.49;91.48;98472.16;5053877;28;20297;-71
2024/01/18 01:32:45;;;;;;;23.00;17.23;;;;;;;-1.45;92.93;98471.75;5053655;28;20792;-71
2024/01/18 01:35:14;;;;;;;21.87;15.80;;;;;;;-1.45;92.57;98486.66;5053622;28;20232;-71
2024/01/18 01:37:43;;;;;;;25.90;16.93;;;;;;;-1.46;91.68;98487.59;5053686;28;20233;-71
2024/01/18 01:40:12;;;;;;;23.67;17.93;;;;;;;-1.45;92.46;98497.16;5053369;28;20216;-71
2024/01/18 01:42:40;;;;;;;23.77;17.03;;;;;;;-1.44;93.37;98514.56;5053613;28;20226;-71
2024/01/18 01:45:10;;;;;;;26.00;17.63;;;;;;;-1.48;93.33;98513.19;5053627;28;20210;-71
2024/01/18 01:47:39;;;;;;;28.53;17.60;;;;;;;-1.51;92.23;98513.47;5053294;28;20202;-71
2024/01/18 01:50:09;;;;;;;25.47;16.90;;;;;;;-1.53;92.55;98516.22;5053448;28;20571;-71
2024/01/18 01:52:40;;;;;;;24.70;17.50;;;;;;;-1.48;92.65;98518.41;5053444;28;20230;-71
2024/01/18 01:55:10;;;;;;;27.37;18.13;;;;;;;-1.45;93.03;98524.22;5053539;28;20202;-71
2024/01/18 01:57:44;;;;;;;26.73;17.37;;;;;;;-1.42;91.50;98523.94;5053146;28;20631;-71
2024/01/18 02:00:16;;;;;;;23.97;16.83;;;;;;;-1.40;92.34;98529.03;5052440;28;20226;-71
2024/01/18 02:02:45;;;;;;;26.53;17.40;;;;;;;-1.39;92.00;98528.06;5053376;28;20226;-71
2024/01/18 02:05:14;;;;;;;31.87;19.00;;;;;;;-1.40;92.03;98526.41;5053395;28;20206;-71
2024/01/18 02:07:43;;;;;;;22.93;16.83;;;;;;;-1.38;91.40;98524.50;5053023;28;20621;-71
2024/01/18 02:10:12;;;;;;;26.13;18.73;;;;;;;-1.39;91.85;98528.91;5053343;28;20241;-71
2024/01/18 02:12:43;;;;;;;25.17;18.43;;;;;;;-1.38;92.02;98524.50;5053244;28;20226;-71
2024/01/18 02:15:13;;;;;;;25.00;17.30;;;;;;;-1.39;91.08;98525.44;5053301;28;20260;-71
2024/01/18 02:17:41;;;;;;;23.83;17.53;;;;;;;-1.38;91.24;98532.38;5053861;28;20210;-71
2024/01/18 02:20:11;;;;;;;26.90;16.83;;;;;;;-1.36;91.68;98533.03;5053205;28;20221;-71
2024/01/18 02:22:43;;;;;;;24.47;17.37;;;;;;;-1.37;91.89;98534.03;5053152;28;20230;-71
2024/01/18 02:25:20;;;;;;;27.87;18.80;;;;;;;-1.38;91.23;98530.56;5053247;28;20186;-71
2024/01/18 02:27:48;;;;;;;24.03;17.50;;;;;;;-1.38;91.03;98550.75;5053223;28;20194;-71
2024/01/18 02:30:17;;;;;;;25.43;17.30;;;;;;;-1.37;91.50;98545.34;5053137;28;20212;-71
2024/01/18 02:32:45;;;;;;;30.03;17.93;;;;;;;-1.35;92.62;98551.28;5053316;28;20287;-71
2024/01/18 02:35:14;;;;;;;27.47;18.47;;;;;;;-1.35;91.07;98553.09;5052841;28;20218;-71
2024/01/18 02:37:43;;;;;;;25.53;18.40;;;;;;;-1.37;91.42;98549.78;5052774;28;20216;-71
2024/01/18 02:40:12;;;;;;;33.80;20.10;;;;;;;-1.35;91.42;98556.53;5052714;28;20711;-71
2024/01/18 02:42:42;;;;;;;25.20;17.93;;;;;;;-1.35;92.51;98561.78;5052978;28;20226;-71
2024/01/18 02:45:11;;;;;;;27.87;18.97;;;;;;;-1.35;91.93;98560.97;5052717;28;20212;-71
2024/01/18 02:47:40;;;;;;;26.87;18.37;;;;;;;-1.35;91.03;98553.09;5053032;28;20256;-71
2024/01/18 02:50:09;;;;;;;28.43;18.53;;;;;;;-1.35;90.82;98548.66;5052958;28;20699;-71
2024/01/18 02:52:39;;;;;;;24.70;18.23;;;;;;;-1.34;90.54;98562.63;5052552;28;20283;-71
2024/01/18 02:55:08;;;;;;;27.67;18.57;;;;;;;-1.38;90.45;98558.63;5052932;28;20233;-71
2024/01/18 02:57:37;;;;;;;27.70;19.60;;;;;;;-1.40;90.89;98550.03;5052895;28;20244;-71
2024/01/18 03:00:08;;;;;;;25.27;19.10;;;;;;;-1.42;92.06;98554.59;5052819;28;20234;-71
2024/01/18 03:02:36;;;;;;;27.53;19.43;;;;;;;-1.39;92.59;98559.56;5052994;28;20230;-71
2024/01/18 03:05:06;;;;;;;31.90;19.67;;;;;;;-1.43;90.96;98555.56;5052836;28;20237;-71
2024/01/18 03:07:34;;;;;;;26.83;17.83;;;;;;;-1.42;91.47;98549.34;5052810;28;20249;-71
2024/01/18 03:10:03;;;;;;;27.57;18.80;;;;;;;-1.41;92.45;98556.28;5052649;28;20209;-71
2024/01/18 03:12:34;;;;;;;26.17;18.73;;;;;;;-1.41;92.52;98556.28;5056369;28;20222;-71
2024/01/18 03:15:03;;;;;;;25.03;18.53;;;;;;;-1.39;91.60;98564.81;5056736;28;20195;-71
2024/01/18 03:17:33;;;;;;;25.23;19.40;;;;;;;-1.42;92.06;98565.09;5056570;28;20206;-71
2024/01/18 03:20:06;;;;;;;29.60;19.93;;;;;;;-1.37;91.94;98562.91;5056243;28;20226;-71
2024/01/18 03:22:35;;;;;;;32.03;20.63;;;;;;;-1.44;91.97;98556.56;5056230;28;20229;-71
2024/01/18 03:25:04;;;;;;;32.97;21.87;;;;;;;-1.47;91.69;98559.44;5055937;28;20667;-71
2024/01/18 03:27:33;;;;;;;29.63;19.83;;;;;;;-1.50;93.01;98557.91;5055876;28;20652;-71
2024/01/18 03:30:01;;;;;;;26.70;19.40;;;;;;;-1.48;93.47;98565.66;5056159;28;20249;-71
2024/01/18 03:32:31;;;;;;;28.60;20.47;;;;;;;-1.47;93.62;98575.19;5055709;28;20226;-71
2024/01/18 03:35:00;;;;;;;30.67;21.43;;;;;;;-1.45;93.50;98581.13;5055888;28;20218;-71
2024/01/18 03:37:28;;;;;;;41.13;24.50;;;;;;;-1.45;92.22;98578.50;5055880;28;20600;-71
2024/01/18 03:39:57;;;;;;;29.63;20.27;;;;;;;-1.46;92.28;98575.03;5055870;28;20324;-71
2024/01/18 03:42:25;;;;;;;33.30;21.40;;;;;;;-1.46;93.64;98579.47;5055566;28;20726;-71
2024/01/18 03:44:54;;;;;;;28.20;20.27;;;;;;;-1.45;93.45;98581.97;5055875;28;20213;-71
2024/01/18 03:47:25;;;;;;;29.30;19.63;;;;;;;-1.45;92.20;98581.97;5055799;28;20221;-71
2024/01/18 03:49:55;;;;;;;28.63;19.90;;;;;;;-1.45;91.94;98586.38;5055795;28;20194;-71
2024/01/18 03:52:24;;;;;;;32.50;21.17;;;;;;;-1.44;91.85;98593.28;5055695;28;20336;-71
2024/01/18 03:54:52;;;;;;;37.67;25.73;;;;;;;-1.40;91.94;98590.22;5055664;28;20297;-71
2024/01/18 03:57:20;;;;;;;34.60;24.73;;;;;;;-1.37;92.89;98589.94;5055619;28;20293;-71
2024/01/18 03:59:49;;;;;;;36.70;23.30;;;;;;;-1.36;91.43;98580.28;5055496;28;20257;-71
2024/01/18 04:02:18;;;;;;;31.47;20.23;;;;;;;-1.38;93.06;98577.81;5055375;28;20292;-71
2024/01/18 04:04:46;;;;;;;34.30;22.23;;;;;;;-1.40;92.15;98587.59;5055474;28;20252;-71
2024/01/18 04:07:18;;;;;;;31.57;21.97;;;;;;;-1.39;92.54;98585.81;5055433;28;20260;-71
2024/01/18 04:09:46;;;;;;;26.80;20.00;;;;;;;-1.40;93.39;98584.16;5055440;28;20222;-71
2024/01/18 04:12:15;;;;;;;31.43;21.20;;;;;;;-1.40;93.38;98582.34;5055159;28;20684;-71
2024/01/18 04:14:44;;;;;;;31.93;21.57;;;;;;;-1.41;93.28;98598.25;5055250;28;20210;-71
2024/01/18 04:17:13;;;;;;;31.27;21.07;;;;;;;-1.41;93.88;98595.63;5055237;28;20242;-71
2024/01/18 04:19:41;;;;;;;34.27;23.10;;;;;;;-1.42;93.91;98596.59;5055036;28;20228;-71
2024/01/18 04:22:10;;;;;;;48.80;29.40;;;;;;;-1.47;92.16;98604.06;5054342;28;20215;-71
2024/01/18 04:24:40;;;;;;;33.77;21.93;;;;;;;-1.52;94.68;98599.22;5055104;28;20392;-71
2024/01/18 04:27:08;;;;;;;30.97;20.93;;;;;;;-1.55;95.47;98602.13;5054775;28;20292;-71
2024/01/18 04:29:37;;;;;;;28.87;19.30;;;;;;;-1.54;94.49;98593.25;5055030;28;20199;-71
2024/01/18 04:32:06;;;;;;;31.13;21.53;;;;;;;-1.54;95.27;98599.34;5054897;28;20217;-71
2024/01/18 04:34:34;;;;;;;30.67;20.40;;;;;;;-1.53;94.15;98600.16;5054680;28;20648;-71
2024/01/18 04:37:03;;;;;;;27.70;19.97;;;;;;;-1.51;94.47;98606.13;5054591;28;20624;-71
2024/01/18 04:39:31;;;;;;;28.10;21.07;;;;;;;-1.52;95.39;98606.25;5054725;28;20222;-71
2024/01/18 04:42:01;;;;;;;36.03;23.27;;;;;;;-1.55;94.03;98597.69;5054786;28;20228;-71
2024/01/18 04:44:29;;;;;;;33.93;23.47;;;;;;;-1.54;94.43;98603.75;5055701;28;20256;-71
2024/01/18 04:46:58;;;;;;;30.40;22.10;;;;;;;-1.55;95.05;98599.50;5054643;28;20229;-71
2024/01/18 04:49:26;;;;;;;30.60;20.93;;;;;;;-1.54;95.46;98599.34;5054672;28;20285;-71
2024/01/18 04:51:55;;;;;;;31.23;22.13;;;;;;;-1.51;94.76;98598.25;5054591;28;20280;-71
2024/01/18 04:54:23;;;;;;;31.30;21.20;;;;;;;-1.51;94.77;98602.66;5054385;28;20312;-71
2024/01/18 04:56:52;;;;;;;31.20;22.53;;;;;;;-1.51;95.27;98602.66;5054692;28;20206;-71
2024/01/18 04:59:22;;;;;;;30.17;21.60;;;;;;;-1.48;94.82;98612.88;5054574;28;20297;-71
2024/01/18 05:01:51;;;;;;;34.17;21.53;;;;;;;-1.46;95.52;98621.44;5054352;28;20212;-71
2024/01/18 05:04:20;;;;;;;33.20;22.33;;;;;;;-1.46;94.57;98616.19;5054245;28;20260;-71
2024/01/18 05:06:48;;;;;;;31.43;20.63;;;;;;;-1.46;95.58;98622.28;5054243;28;20676;-71
2024/01/18 05:09:17;;;;;;;32.87;21.23;;;;;;;-1.49;94.10;98617.31;5054228;28;20214;-70
2024/01/18 05:11:46;;;;;;;28.93;19.80;;;;;;;-1.48;95.54;98623.38;5054153;28;20210;-70
2024/01/18 05:14:14;;;;;;;28.00;19.80;;;;;;;-1.48;94.42;98626.00;5054058;28;20226;-71
2024/01/18 05:16:50;;;;;;;29.70;20.00;;;;;;;-1.50;95.80;98628.75;5053824;28;20699;-71
2024/01/18 05:19:19;;;;;;;27.30;19.33;;;;;;;-1.50;95.01;98628.75;5054100;28;20205;-71
2024/01/18 05:21:48;;;;;;;29.00;20.07;;;;;;;-1.53;94.23;98634.28;5053654;28;20686;-71
2024/01/18 05:24:16;;;;;;;39.30;22.80;;;;;;;-1.55;95.60;98631.81;5053932;28;20222;-71
2024/01/18 05:26:45;;;;;;;30.10;20.70;;;;;;;-1.58;95.27;98626.84;5053974;28;20336;-71
2024/01/18 05:29:14;;;;;;;34.93;22.63;;;;;;;-1.59;95.49;98635.66;5053552;28;20620;-71
2024/01/18 05:31:43;;;;;;;33.53;23.80;;;;;;;-1.62;96.52;98648.22;5053910;28;20632;-71
2024/01/18 05:34:12;;;;;;;38.20;25.40;;;;;;;-1.59;96.78;98642.69;5052919;28;20233;-71
2024/01/18 05:36:42;;;;;;;32.80;22.50;;;;;;;-1.61;97.62;98648.06;5054081;28;20200;-71
2024/01/18 05:39:11;;;;;;;34.53;22.07;;;;;;;-1.60;96.55;98654.97;5053721;28;20211;-71
2024/01/18 05:41:39;;;;;;;32.43;22.93;;;;;;;-1.56;97.17;98652.94;5053702;28;20234;-70
2024/01/18 05:44:09;;;;;;;29.37;22.07;;;;;;;-1.59;96.64;98661.91;5053601;28;20226;-71
2024/01/18 05:46:38;;;;;;;30.23;21.50;;;;;;;-1.55;97.07;98662.47;5053310;28;20264;-71
2024/01/18 05:49:08;;;;;;;31.97;22.13;;;;;;;-1.59;95.73;98664.53;5053620;28;20285;-71
2024/01/18 05:51:36;;;;;;;30.87;21.30;;;;;;;-1.58;95.96;98660.94;5053597;28;20202;-71
2024/01/18 05:54:06;;;;;;;30.77;20.27;;;;;;;-1.62;96.02;98659.56;5053510;28;20253;-71
2024/01/18 05:56:37;;;;;;;34.20;22.33;;;;;;;-1.64;96.65;98661.47;5053547;28;20197;-71
2024/01/18 05:59:06;;;;;;;29.47;21.30;;;;;;;-1.67;96.62;98660.91;5053499;28;20230;-71
2024/01/18 06:01:35;;;;;;;31.47;22.07;;;;;;;-1.65;97.50;98659.81;5053329;28;20222;-71
2024/01/18 06:04:04;;;;;;;32.77;22.33;;;;;;;-1.69;97.91;98668.09;5053123;28;20716;-71
2024/01/18 06:06:34;;;;;;;30.30;22.07;;;;;;;-1.75;98.91;98660.75;5053349;28;20264;-71
2024/01/18 06:09:02;;;;;;;30.60;21.57;;;;;;;-1.74;99.53;98671.09;5053365;28;20206;-71
2024/01/18 06:11:31;;;;;;;29.93;20.20;;;;;;;-1.77;97.92;98670.53;5053281;28;20613;-63
2024/01/18 06:13:59;;;;;;;29.83;21.10;;;;;;;-1.74;98.79;98683.38;5053169;28;20228;-68
2024/01/18 06:16:28;;;;;;;28.33;20.33;;;;;;;-1.69;98.28;98683.81;5053243;28;20264;-68
2024/01/18 06:18:57;;;;;;;32.30;20.87;;;;;;;-1.69;97.01;98695.16;5053515;28;20221;-68
2024/01/18 06:21:25;;;;;;;34.17;23.40;;;;;;;-1.74;96.93;98697.31;5052827;28;20727;-68
2024/01/18 06:23:55;;;;;;;35.60;24.43;;;;;;;-1.75;97.82;98705.34;5052833;28;20226;-68
2024/01/18 06:26:24;;;;;;;33.60;23.80;;;;;;;-1.75;98.33;98708.81;5053172;28;20301;-68
2024/01/18 06:28:52;;;;;;;34.13;24.93;;;;;;;-1.73;97.42;98712.13;5052838;28;20206;-68
2024/01/18 06:31:26;;;;;;;32.97;22.30;;;;;;;-1.71;98.02;98707.56;5052777;28;20624;-68
2024/01/18 06:33:56;;;;;;;35.07;23.53;;;;;;;-1.76;98.41;98717.63;5052736;28;20708;-68
2024/01/18 06:36:24;;;;;;;34.43;22.57;;;;;;;-1.79;99.00;98704.78;5052715;28;20241;-68
2024/01/18 06:38:53;;;;;;;30.30;22.33;;;;;;;-1.77;98.15;98707.25;5052992;28;20237;-68
2024/01/18 06:41:22;;;;;;;35.23;23.10;;;;;;;-1.85;98.54;98707.91;5052950;28;20225;-68
2024/01/18 06:43:51;;;;;;;33.07;23.53;;;;;;;-1.81;99.87;98711.09;5052904;28;20257;-68
2024/01/18 06:46:21;;;;;;;33.60;21.63;;;;;;;-1.78;99.85;98721.34;5055216;28;20244;-68
2024/01/18 06:48:52;;;;;;;31.87;23.70;;;;;;;-1.81;98.90;98732.91;5056862;28;20210;-68
2024/01/18 06:51:22;;;;;;;31.63;22.23;;;;;;;-1.82;98.42;98731.28;5056564;28;20182;-68
2024/01/18 06:53:51;;;;;;;32.50;22.30;;;;;;;-1.80;98.38;98731.97;5056716;28;20230;-68
2024/01/18 06:56:19;;;;;;;32.63;24.10;;;;;;;-1.86;98.35;98740.38;5056706;28;20301;-68
2024/01/18 06:58:49;;;;;;;39.03;23.80;;;;;;;-1.87;99.65;98750.97;5056370;28;20546;-68
2024/01/18 07:01:17;;;;;;;32.37;22.93;;;;;;;-1.95;99.18;98749.00;5056547;28;20264;-68
2024/01/18 07:03:47;;;;;;;38.73;24.23;;;;;;;-1.95;99.44;98746.38;5056233;28;20711;-68
2024/01/18 07:06:16;;;;;;;34.63;23.10;;;;;;;-1.92;100.00;98768.91;5056505;28;20259;-68
2024/01/18 07:08:44;;;;;;;33.03;24.50;;;;;;;-1.92;100.00;98771.53;5056502;28;20206;-68
2024/01/18 07:11:13;;;;;;;32.83;23.53;;;;;;;-1.92;99.94;98780.22;5056450;28;20285;-68
2024/01/18 07:13:41;;;;;;;38.17;24.00;;;;;;;-1.92;99.03;98767.13;5056038;28;20625;-68
2024/01/18 07:16:11;;;;;;;36.63;25.53;;;;;;;-1.96;98.47;98776.19;5056337;28;20232;-67
2024/01/18 07:18:40;;;;;;;35.13;22.90;;;;;;;-1.99;100.00;98768.59;5056019;28;20833;-68
2024/01/18 07:21:08;;;;;;;35.87;25.50;;;;;;;-1.98;100.00;98772.84;5056212;28;20233;-68
2024/01/18 07:23:37;;;;;;;36.10;24.50;;;;;;;-1.99;100.00;98768.59;5056163;28;20293;-68
2024/01/18 07:26:05;;;;;;;34.90;24.17;;;;;;;-1.99;100.00;98773.84;5055886;28;20209;-68
2024/01/18 07:28:34;;;;;;;36.80;23.73;;;;;;;-1.96;100.00;98772.75;5056131;28;20297;-68
2024/01/18 07:31:03;;;;;;;34.00;22.77;;;;;;;-1.98;100.00;98767.63;5056079;28;20241;-68
2024/01/18 07:33:33;;;;;;;33.90;24.17;;;;;;;-1.96;99.94;98776.19;5055935;28;20228;-68
2024/01/18 07:36:01;;;;;;;40.07;25.47;;;;;;;-2.00;100.00;98774.78;5055751;28;20214;-68
2024/01/18 07:38:30;;;;;;;34.10;23.70;;;;;;;-2.00;100.00;98784.44;5055668;28;20749;-68
2024/01/18 07:40:59;;;;;;;37.10;23.67;;;;;;;-2.03;100.00;98790.78;5055956;28;20300;-68
2024/01/18 07:43:27;;;;;;;34.30;24.23;;;;;;;-2.02;100.00;98789.00;5055796;28;20222;-68
2024/01/18 07:45:56;;;;;;;37.97;24.80;;;;;;;-2.02;100.00;98787.19;5055540;28;20217;-68
2024/01/18 07:48:25;;;;;;;34.47;24.30;;;;;;;-2.00;100.00;98794.94;5055422;28;20700;-68
2024/01/18 07:50:54;;;;;;;36.60;24.03;;;;;;;-2.07;100.00;98798.06;5055708;28;20206;-68
2024/01/18 07:53:24;;;;;;;35.20;24.00;;;;;;;-2.08;100.00;98803.44;5055259;28;20719;-68
2024/01/18 07:55:52;;;;;;;32.37;24.30;;;;;;;-2.05;100.00;98803.19;5055328;28;20206;-68
2024/01/18 07:58:21;;;;;;;39.07;27.57;;;;;;;-2.08;99.91;98803.44;5054429;28;20264;-69
2024/01/18 08:00:50;;;;;;;37.30;27.20;;;;;;;-2.11;100.00;98804.53;5055514;28;20296;-70
2024/01/18 08:03:19;;;;;;;35.33;25.97;;;;;;;-2.19;100.00;98817.44;5055317;28;20268;-70
2024/01/18 08:05:48;;;;;;;34.23;24.13;;;;;;;-2.17;100.00;98823.41;5055401;28;20690;-70
2024/01/18 08:08:18;;;;;;;37.13;25.77;;;;;;;-2.16;99.87;98821.63;5055400;28;20237;-70
2024/01/18 08:10:46;;;;;;;34.90;24.63;;;;;;;-2.16;100.00;98821.63;5055386;28;20249;-70
2024/01/18 08:13:14;;;;;;;34.27;25.10;;;;;;;-2.18;100.00;98828.75;5054948;28;20746;-70
2024/01/18 08:15:43;;;;;;;31.10;22.57;;;;;;;-2.17;100.00;98835.66;5054951;28;20256;-70
2024/01/18 08:18:13;;;;;;;35.37;24.80;;;;;;;-2.18;100.00;98844.47;5054950;28;20677;-70
2024/01/18 08:20:42;;;;;;;37.70;25.70;;;;;;;-2.24;100.00;98839.75;5054870;28;20214;-70
2024/01/18 08:23:11;;;;;;;36.03;26.07;;;;;;;-2.31;100.00;98843.81;5054989;28;20318;-70
2024/01/18 08:25:42;;;;;;;45.87;28.77;;;;;;;-2.40;100.00;98839.34;5055087;28;20232;-70
2024/01/18 08:28:13;;;;;;;44.10;28.87;;;;;;;-2.42;100.00;98839.47;5055109;28;20191;-70
2024/01/18 08:30:42;;;;;;;37.23;27.33;;;;;;;-2.36;100.00;98846.00;5055018;28;20205;-70
2024/01/18 08:33:10;;;;;;;39.37;26.53;;;;;;;-2.35;100.00;98847.66;5054896;28;20218;-70
2024/01/18 08:35:39;;;;;;;44.00;27.67;;;;;;;-2.35;100.00;98858.97;5054784;28;20227;-70
2024/01/18 08:38:08;;;;;;;42.80;28.43;;;;;;;-2.34;100.00;98852.78;5054891;28;20633;-70
2024/01/18 08:40:36;;;;;;;41.17;27.50;;;;;;;-2.35;100.00;98853.72;5054839;28;20233;-70
2024/01/18 08:43:06;;;;;;;41.97;28.63;;;;;;;-2.35;100.00;98856.34;5054538;28;20696;-70
2024/01/18 08:45:36;;;;;;;36.53;26.40;;;;;;;-2.35;100.00;98853.72;5054712;28;20335;-70
2024/01/18 08:48:06;;;;;;;45.20;27.57;;;;;;;-2.30;100.00;98863.84;5054651;28;20240;-70
2024/01/18 08:50:34;;;;;;;36.37;26.73;;;;;;;-2.28;100.00;98867.16;5054609;28;20210;-70
2024/01/18 08:53:04;;;;;;;41.90;28.83;;;;;;;-2.27;100.00;98871.47;5054518;28;20222;-70
2024/01/18 08:55:32;;;;;;;34.53;25.43;;;;;;;-2.25;100.00;98878.22;5054540;28;20202;-70
2024/01/18 08:58:01;;;;;;;41.43;26.20;;;;;;;-2.29;100.00;98882.06;5054160;28;20692;-70
2024/01/18 09:00:31;;;;;;;39.57;26.20;;;;;;;-2.29;100.00;98878.59;5054481;28;20298;-70
2024/01/18 09:03:00;;;;;;;53.87;28.43;;;;;;;-2.30;100.00;98892.69;5054168;28;20794;-70
2024/01/18 09:05:30;;;;;;;46.03;28.77;;;;;;;-2.28;100.00;98890.75;5054330;28;20206;-70
2024/01/18 09:08:00;;;;;;;39.47;27.13;;;;;;;-2.27;100.00;98897.66;5054239;28;20217;-70
2024/01/18 09:10:33;;;;;;;37.33;25.60;;;;;;;-2.27;100.00;98897.66;5054262;28;20197;-70
2024/01/18 09:13:02;;;;;;;35.67;26.13;;;;;;;-2.26;100.00;98904.59;5054168;28;20237;-70
2024/01/18 09:15:34;;;;;;;42.47;27.53;;;;;;;-2.31;100.00;98901.50;5054170;28;20582;-70
2024/01/18 09:18:03;;;;;;;42.07;27.77;;;;;;;-2.35;100.00;98907.94;5054134;28;20194;-70
2024/01/18 09:20:32;;;;;;;42.57;27.47;;;;;;;-2.31;100.00;98917.22;5053803;28;20672;-70
2024/01/18 09:23:01;;;;;;;44.43;27.50;;;;;;;-2.27;100.00;98918.63;5053903;28;20230;-70
2024/01/18 09:25:40;;;;;;;35.60;25.50;;;;;;;-2.27;100.00;98916.00;5054250;28;20276;-70
2024/01/18 09:28:09;;;;;;;42.00;27.87;;;;;;;-2.25;100.00;98916.72;5053993;28;20289;-70
2024/01/18 09:30:39;;;;;;;36.23;27.17;;;;;;;-2.23;100.00;98920.06;5053900;28;20210;-71
2024/01/18 09:33:12;;;;;;;37.77;26.33;;;;;;;-2.22;100.00;98921.69;5053527;28;20325;-70
2024/01/18 09:35:40;;;;;;;41.80;27.27;;;;;;;-2.19;100.00;98924.91;5053675;28;20286;-70
2024/01/18 09:38:10;;;;;;;40.03;27.97;;;;;;;-2.15;100.00;98928.13;5053758;28;20233;-70
2024/01/18 09:40:40;;;;;;;43.77;26.87;;;;;;;-2.11;100.00;98937.41;5053636;28;20208;-67
2024/01/18 09:43:10;;;;;;;36.23;25.63;;;;;;;-2.09;100.00;98933.69;5053458;28;20284;-67
2024/01/18 09:45:47;;;;;;;37.90;24.80;;;;;;;-2.05;100.00;98936.88;5053673;28;20563;-67
2024/01/18 09:48:16;;;;;;;38.70;24.33;;;;;;;-2.03;100.00;98948.09;5053565;28;20217;-67
2024/01/18 09:50:46;;;;;;;33.80;24.20;;;;;;;-1.99;100.00;98949.53;5053472;28;20292;-67
2024/01/18 09:53:15;;;;;;;33.97;21.93;;;;;;;-1.94;100.00;98947.34;5053395;28;20226;-67
2024/01/18 09:55:43;;;;;;;33.30;23.30;;;;;;;-1.88;100.00;98953.91;5053515;28;20293;-67
2024/01/18 09:58:13;;;;;;;32.73;23.20;;;;;;;-1.88;100.00;98951.28;5053397;28;20285;-67
2024/01/18 10:00:48;;;;;;;35.33;22.07;;;;;;;-1.84;100.00;98955.28;5053632;28;20202;-67
2024/01/18 10:03:17;;;;;;;29.73;20.60;;;;;;;-1.80;100.00;98960.16;5053284;28;20237;-67
2024/01/18 10:05:46;;;;;;;33.73;20.97;;;;;;;-1.78;100.00;98973.97;5053318;28;20260;-67
2024/01/18 10:08:15;;;;;;;29.87;18.93;;;;;;;-1.75;100.00;98963.25;5053846;28;20202;-67
2024/01/18 10:10:44;;;;;;;30.37;19.63;;;;;;;-1.70;100.00;98970.72;5053264;28;20217;-67
2024/01/18 10:13:14;;;;;;;28.73;19.23;;;;;;;-1.66;100.00;98966.91;5052949;28;20746;-67
2024/01/18 10:15:44;;;;;;;30.43;19.87;;;;;;;-1.63;100.00;98966.66;5053253;28;20225;-67
2024/01/18 10:18:12;;;;;;;29.33;19.70;;;;;;;-1.60;100.00;98972.47;5053232;28;20210;-67
2024/01/18 10:20:42;;;;;;;30.23;19.10;;;;;;;-1.56;100.00;98967.81;5054465;28;20256;-67
2024/01/18 10:23:11;;;;;;;25.47;18.37;;;;;;;-1.51;100.00;98972.69;5057268;28;20229;-67
2024/01/18 10:25:40;;;;;;;26.20;17.60;;;;;;;-1.49;100.00;98979.47;5057289;28;20293;-67
2024/01/18 10:28:09;;;;;;;30.07;18.10;;;;;;;-1.47;100.00;98972.28;5057267;28;20309;-67
2024/01/18 10:30:38;;;;;;;28.47;18.53;;;;;;;-1.43;100.00;98975.47;5057220;28;20284;-67
2024/01/18 10:33:11;;;;;;;27.67;17.30;;;;;;;-1.41;100.00;98981.44;5056751;28;20304;-67
2024/01/18 10:35:40;;;;;;;23.37;16.10;;;;;;;-1.39;100.00;98972.47;5056809;28;20213;-67
2024/01/18 10:38:08;;;;;;;27.10;17.67;;;;;;;-1.30;100.00;98990.06;5057082;28;20292;-67
2024/01/18 10:40:37;;;;;;;26.43;16.60;;;;;;;-1.27;100.00;98986.38;5057846;28;20208;-67
2024/01/18 10:43:07;;;;;;;19.57;14.33;;;;;;;-1.22;100.00;98987.66;5057292;28;20264;-62
2024/01/18 10:45:36;;;;;;;21.00;15.17;;;;;;;-1.21;100.00;98996.38;5057241;28;20210;-70
2024/01/18 10:48:06;;;;;;;18.63;13.97;;;;;;;-1.21;100.00;98993.75;5056921;28;20289;-70
2024/01/18 10:50:37;;;;;;;23.73;14.50;;;;;;;-1.18;100.00;98999.56;5056527;28;20241;-70
2024/01/18 10:53:07;;;;;;;19.70;13.70;;;;;;;-1.14;100.00;99000.13;5056781;28;20266;-71
2024/01/18 10:55:35;;;;;;;23.20;13.93;;;;;;;-1.12;100.00;99009.53;5056711;28;20213;-71
2024/01/18 10:58:05;;;;;;;21.93;15.03;;;;;;;-1.11;100.00;99010.38;5056380;28;20664;-71
2024/01/18 11:00:34;;;;;;;25.23;14.30;;;;;;;-1.07;100.00;99017.88;5056633;28;20214;-71
2024/01/18 11:03:04;;;;;;;21.23;14.00;;;;;;;-0.98;100.00;99023.31;5056193;28;20292;-71
2024/01/18 11:05:32;;;;;;;19.80;14.10;;;;;;;-0.99;100.00;99014.59;5056301;28;20577;-71
2024/01/18 11:08:04;;;;;;;21.13;14.13;;;;;;;-0.97;100.00;99017.94;5056753;28;20209;-71
2024/01/18 11:10:34;;;;;;;21.03;14.03;;;;;;;-0.91;100.00;99022.66;5056506;28;20194;-70
2024/01/18 11:13:03;;;;;;;21.67;13.33;;;;;;;-0.91;100.00;99020.03;5056384;28;20229;-71
2024/01/18 11:15:32;;;;;;;21.70;14.00;;;;;;;-0.88;100.00;99026.81;5056422;28;20230;-70
2024/01/18 11:18:10;;;;;;;19.67;14.17;;;;;;;-0.87;100.00;99025.88;5056062;28;20259;-70
2024/01/18 11:21:08;;;;;;;19.73;13.80;;;;;;;-0.80;100.00;99030.47;5056581;28;20194;-71
2024/01/18 11:23:40;;;;;;;20.47;13.10;;;;;;;-0.77;100.00;99032.84;5056135;28;20256;-70